Time;durP1;ratioP1;P1;durP2;ratioP2;P2;SDS_P1;SDS_P2;PMS_P1;PMS_P2;Temp;Humidity;BMP_temperature;BMP_pressure;BME280_temperature;BME280_humidity;BME280_pressure;Samples;Min_cycle;Max_cycle;Signal;HPM_P1;HPM_P2
2022/11/18 00:00:55;;;;;;;204.90;20.33;;;;;8.90;94585.00;;;;8297036;28;20222;-77
2022/11/18 00:04:58;;;;;;;401.98;27.13;;;;;8.80;94582.00;;;;8297006;28;20709;-78
2022/11/18 00:09:35;;;;;;;440.03;25.33;;;;;8.80;94577.00;;;;8296829;28;20222;-78
2022/11/18 00:18:00;;;;;;;435.67;26.00;;;;;8.70;94568.00;;;;8296776;28;20320;-78
2022/11/18 00:22:04;;;;;;;321.73;26.00;;;;;8.70;94568.00;;;;8296774;28;20217;-79
2022/11/18 00:26:08;;;;;;;354.40;24.38;;;;;8.80;94562.00;;;;8295906;28;20229;-79
2022/11/18 00:30:47;;;;;;;158.77;22.10;;;;;8.70;94551.00;;;;8296753;28;20268;-79
2022/11/18 00:34:50;;;;;;;329.50;26.20;;;;;8.80;94546.00;;;;8295878;28;20221;-80
2022/11/18 00:38:53;;;;;;;149.77;21.73;;;;;8.80;94538.00;;;;8296319;28;20614;-80
2022/11/18 00:42:56;;;;;;;117.77;19.20;;;;;8.90;94533.00;;;;8296048;28;20218;-80
2022/11/18 00:47:01;;;;;;;93.63;18.75;;;;;8.90;94532.00;;;;8295662;28;20252;-80
2022/11/18 00:51:09;;;;;;;102.70;19.27;;;;;8.90;94533.00;;;;8296793;28;20221;-80
2022/11/18 00:55:12;;;;;;;92.20;18.47;;;;;8.90;94537.00;;;;8294934;28;20682;-80
2022/11/18 00:59:15;;;;;;;93.05;18.85;;;;;8.90;94524.00;;;;8296232;28;20239;-81
2022/11/18 01:03:21;;;;;;;87.88;18.35;;;;;8.80;94523.00;;;;8294328;28;20219;-81
2022/11/18 01:07:24;;;;;;;88.25;18.17;;;;;8.80;94521.00;;;;8295221;28;20291;-81
2022/11/18 01:15:49;;;;;;;54.20;14.88;;;;;8.60;94523.00;;;;8295939;28;20225;-82
2022/11/18 01:20:23;;;;;;;60.17;14.50;;;;;8.50;94516.00;;;;8295370;28;20620;-81
2022/11/18 01:24:28;;;;;;;52.92;14.05;;;;;8.40;94518.00;;;;8293940;28;20560;-82
2022/11/18 01:28:31;;;;;;;59.45;13.95;;;;;8.40;94523.00;;;;8295496;28;20310;-81
2022/11/18 01:32:35;;;;;;;55.50;13.68;;;;;8.40;94526.00;;;;8293930;28;20225;-81
2022/11/18 01:36:38;;;;;;;55.00;13.03;;;;;8.40;94523.00;;;;8294736;28;20256;-81
2022/11/18 01:40:43;;;;;;;52.33;14.10;;;;;8.40;94519.00;;;;8294177;28;20221;-81
2022/11/18 01:45:24;;;;;;;55.60;14.05;;;;;8.40;94519.00;;;;8294448;28;20214;-83
2022/11/18 01:49:28;;;;;;;54.90;14.38;;;;;8.40;94525.00;;;;8294048;28;20232;-81
2022/11/18 01:53:33;;;;;;;61.03;14.82;;;;;8.40;94547.00;;;;8295215;28;20301;-85
2022/11/18 01:57:38;;;;;;;52.60;14.97;;;;;8.50;94543.00;;;;8293326;28;20562;-86
2022/11/18 02:02:14;;;;;;;62.03;15.30;;;;;8.50;94547.00;;;;8294941;28;20222;-86
2022/11/18 02:06:17;;;;;;;60.17;15.55;;;;;8.60;94552.00;;;;8293499;28;20288;-84
2022/11/18 02:10:23;;;;;;;59.33;15.50;;;;;8.70;94555.00;;;;8294231;28;20236;-85
2022/11/18 02:14:31;;;;;;;66.17;16.73;;;;;8.70;94567.00;;;;8298269;28;20225;-84
2022/11/18 02:18:44;;;;;;;64.67;16.57;;;;;8.80;94561.00;;;;8301002;28;20256;-84
2022/11/18 02:23:32;;;;;;;74.03;16.85;;;;;8.80;94554.00;;;;8290754;28;20221;-83
2022/11/18 02:27:58;;;;;;;74.30;16.92;;;;;8.80;94556.00;;;;8300934;28;20248;-84
2022/11/18 02:32:10;;;;;;;110.43;18.20;;;;;8.80;94545.00;;;;8300052;28;20220;-84
2022/11/18 02:36:18;;;;;;;121.38;18.67;;;;;8.80;94552.00;;;;8300391;28;20221;-84
2022/11/18 02:40:25;;;;;;;314.17;23.60;;;;;8.80;94554.00;;;;8299250;28;20214;-83
2022/11/18 02:44:30;;;;;;;386.33;25.08;;;;;8.80;94552.00;;;;8299689;28;20218;-84
2022/11/18 02:48:39;;;;;;;637.65;36.15;;;;;8.70;94552.00;;;;8299152;28;20226;-84
2022/11/18 02:52:45;;;;;;;339.97;25.43;;;;;8.80;94555.00;;;;8300286;28;20610;-82
2022/11/18 02:56:50;;;;;;;509.67;31.05;;;;;8.80;94549.00;;;;8298900;28;20229;-83
2022/11/18 03:00:54;;;;;;;310.63;24.10;;;;;8.80;94534.00;;;;8299590;28;20627;-83
2022/11/18 03:05:37;;;;;;;397.50;24.13;;;;;8.80;94541.00;;;;8298409;28;20304;-84
2022/11/18 03:09:44;;;;;;;536.50;30.83;;;;;8.80;94537.00;;;;8299403;28;20224;-84
2022/11/18 03:14:02;;;;;;;443.90;26.40;;;;;8.80;94532.00;;;;8299149;28;20732;-81
2022/11/18 03:18:16;;;;;;;557.23;30.53;;;;;8.70;94543.00;;;;8298700;28;20229;-84
2022/11/18 03:22:25;;;;;;;256.33;25.52;;;;;8.80;94541.00;;;;8296616;28;20218;-82
2022/11/18 03:26:33;;;;;;;378.17;25.73;;;;;8.80;94546.00;;;;8298654;28;20229;-84
2022/11/18 03:30:39;;;;;;;471.20;26.50;;;;;8.80;94540.00;;;;8298638;28;20756;-85
2022/11/18 03:34:47;;;;;;;592.97;31.37;;;;;8.70;94538.00;;;;8297876;28;20264;-85
2022/11/18 03:39:20;;;;;;;766.17;39.17;;;;;8.70;94531.00;;;;8298300;28;20595;-83
2022/11/18 03:43:27;;;;;;;454.83;27.27;;;;;8.60;94535.00;;;;8297670;28;20224;-84
2022/11/18 03:48:01;;;;;;;714.73;36.53;;;;;8.60;94543.00;;;;8298279;28;20226;-85
2022/11/18 03:52:11;;;;;;;592.17;31.97;;;;;8.50;94554.00;;;;8298221;28;20225;-83
2022/11/18 03:56:44;;;;;;;499.55;26.80;;;;;8.40;94545.00;;;;8296065;28;20224;-83
2022/11/18 04:00:52;;;;;;;455.50;27.53;;;;;8.40;94557.00;;;;8297211;28;20614;-83
2022/11/18 04:04:57;;;;;;;603.35;30.73;;;;;8.30;94560.00;;;;8297557;28;20241;-82
2022/11/18 04:09:34;;;;;;;444.90;25.93;;;;;8.10;94568.00;;;;8296987;28;20305;-83
2022/11/18 04:13:39;;;;;;;511.23;26.50;;;;;8.00;94566.00;;;;8296766;28;20595;-83
2022/11/18 04:18:13;;;;;;;272.00;19.90;;;;;8.00;94567.00;;;;8297664;28;20221;-81
2022/11/18 04:22:18;;;;;;;325.30;22.33;;;;;8.00;94569.00;;;;8296849;28;20644;-81
2022/11/18 04:26:21;;;;;;;438.87;25.07;;;;;8.00;94566.00;;;;8296486;28;20623;-80
2022/11/18 04:30:25;;;;;;;56.00;11.77;;;;;7.90;94572.00;;;;8295969;28;20221;-77
2022/11/18 04:34:29;;;;;;;33.47;10.73;;;;;7.90;94570.00;;;;8296791;28;20227;-78
2022/11/18 04:39:03;;;;;;;32.13;10.13;;;;;8.00;94563.00;;;;8295097;28;20245;-78
2022/11/18 04:43:06;;;;;;;39.70;10.23;;;;;8.00;94577.00;;;;8296226;28;20217;-77
2022/11/18 04:47:10;;;;;;;37.17;11.53;;;;;8.10;94579.00;;;;8296630;28;20694;-77
2022/11/18 04:51:45;;;;;;;62.40;12.23;;;;;8.10;94577.00;;;;8295644;28;20230;-77
2022/11/18 04:55:48;;;;;;;120.13;15.97;;;;;8.20;94577.00;;;;8296329;28;20218;-78
2022/11/18 05:00:22;;;;;;;206.83;16.57;;;;;8.20;94585.00;;;;8294828;28;20666;-77
2022/11/18 05:04:28;;;;;;;390.80;24.07;;;;;8.20;94582.00;;;;8295580;28;20617;-77
2022/11/18 05:08:32;;;;;;;496.40;26.77;;;;;8.20;94579.00;;;;8294970;28;20575;-85
2022/11/18 05:18:06;;;;;;;430.77;24.63;;;;;8.20;94588.00;;;;8294293;28;20277;-83
2022/11/18 05:22:44;;;;;;;262.23;21.27;;;;;8.20;94578.00;;;;8293857;28;20221;-82
2022/11/18 05:27:18;;;;;;;377.63;25.47;;;;;8.20;94586.00;;;;8293961;28;20622;-80
2022/11/18 05:31:55;;;;;;;357.97;24.27;;;;;8.20;94581.00;;;;8294024;28;20217;-79
2022/11/18 05:36:32;;;;;;;345.53;25.87;;;;;8.20;94575.00;;;;8293945;28;20229;-80
2022/11/18 05:43:09;;;;;;;464.40;26.97;;;;;8.20;94570.00;;;;8294554;28;20611;-80
2022/11/18 05:45:45;;;;;;;86.35;15.30;;;;;8.20;94586.00;;;;8293873;28;20230;-79
2022/11/18 05:50:22;;;;;;;62.90;14.35;;;;;8.20;94587.00;;;;8293922;28;20288;-82
2022/11/18 05:54:59;;;;;;;48.17;12.40;;;;;8.10;94589.00;;;;8293870;28;20591;-80
2022/11/18 05:59:37;;;;;;;45.70;12.30;;;;;8.10;94588.00;;;;8293140;28;20280;-78
2022/11/18 06:04:14;;;;;;;49.00;12.63;;;;;8.10;94579.00;;;;8287441;28;20276;-78
2022/11/18 06:08:55;;;;;;;49.13;12.17;;;;;8.20;94584.00;;;;8293057;28;20216;-78
2022/11/18 06:18:23;;;;;;;53.77;11.37;;;;;8.30;94581.00;;;;8293913;28;20674;-78
2022/11/18 06:22:53;;;;;;;41.50;10.57;;;;;8.30;94596.00;;;;8291526;28;20222;-79
2022/11/18 06:27:28;;;;;;;43.80;11.27;;;;;8.30;94607.00;;;;8293022;28;20226;-79
2022/11/18 06:32:03;;;;;;;38.53;11.93;;;;;8.30;94610.00;;;;8290406;28;20280;-80
2022/11/18 06:36:39;;;;;;;43.22;11.38;;;;;8.30;94612.00;;;;8291396;28;20218;-79
2022/11/18 06:41:16;;;;;;;33.80;10.10;;;;;8.30;94615.00;;;;8293060;28;20234;-79
2022/11/18 06:50:31;;;;;;;27.67;9.83;;;;;8.40;94621.00;;;;8160750;29;20308;-79
2022/11/18 06:59:52;;;;;;;40.40;10.53;;;;;8.50;94631.00;;;;8294260;28;20232;-81
2022/11/18 07:04:27;;;;;;;51.93;10.90;;;;;8.50;94644.00;;;;8298110;28;20246;-79
2022/11/18 07:09:03;;;;;;;33.72;9.40;;;;;8.60;94641.00;;;;8299078;28;20266;-78
2022/11/18 07:13:06;;;;;;;34.33;9.17;;;;;8.70;94651.00;;;;8295849;28;20635;-77
2022/11/18 07:17:45;;;;;;;28.15;8.57;;;;;8.70;94653.00;;;;8299939;28;20233;-80
2022/11/18 07:22:21;;;;;;;28.47;8.40;;;;;8.80;94656.00;;;;8299252;28;20226;-80
2022/11/18 07:26:58;;;;;;;21.43;7.70;;;;;8.90;94650.00;;;;8298814;28;20222;-81
2022/11/18 07:31:36;;;;;;;25.50;7.85;;;;;8.90;94651.00;;;;8298307;28;20214;-79
2022/11/18 07:36:10;;;;;;;22.27;7.30;;;;;9.00;94655.00;;;;8299154;28;20218;-80
2022/11/18 07:40:48;;;;;;;19.48;7.18;;;;;9.10;94655.00;;;;8285963;28;20221;-79
2022/11/18 07:45:25;;;;;;;21.85;7.88;;;;;9.10;94661.00;;;;8297618;28;20238;-78
2022/11/18 07:49:28;;;;;;;18.33;6.40;;;;;9.10;94663.00;;;;8298415;28;20221;-78
2022/11/18 07:54:08;;;;;;;16.00;5.70;;;;;9.10;94667.00;;;;8297164;28;20232;-78
2022/11/18 07:58:44;;;;;;;14.35;5.10;;;;;9.10;94675.00;;;;8297791;28;20632;-79
2022/11/18 08:03:18;;;;;;;11.27;4.60;;;;;9.10;94664.00;;;;8297726;28;20222;-78
2022/11/18 08:07:55;;;;;;;6.80;4.00;;;;;9.20;94676.00;;;;8289053;28;20628;-81
2022/11/18 08:11:58;;;;;;;10.48;4.60;;;;;9.30;94674.00;;;;8297077;28;20226;-81
2022/11/18 08:16:36;;;;;;;9.77;4.32;;;;;9.30;94681.00;;;;8297335;28;20273;-83
2022/11/18 08:21:11;;;;;;;11.40;4.65;;;;;9.30;94689.00;;;;8296085;28;20339;-83
2022/11/18 08:25:14;;;;;;;7.20;3.97;;;;;9.40;94680.00;;;;8288344;28;20213;-82
2022/11/18 08:29:17;;;;;;;10.52;4.50;;;;;9.50;94685.00;;;;8296959;28;20301;-81
2022/11/18 08:33:57;;;;;;;9.27;3.85;;;;;9.40;94693.00;;;;8295181;28;20361;-81
2022/11/18 08:38:31;;;;;;;10.23;3.53;;;;;9.40;94696.00;;;;8295882;28;20248;-82
2022/11/18 08:43:09;;;;;;;8.07;3.72;;;;;9.40;94709.00;;;;8287456;28;20230;-86
2022/11/18 08:47:46;;;;;;;7.90;3.70;;;;;9.40;94712.00;;;;8295779;28;20366;-85
2022/11/18 08:52:24;;;;;;;6.85;3.40;;;;;9.30;94712.00;;;;8296601;28;20310;-84
2022/11/18 08:56:27;;;;;;;4.13;2.40;;;;;9.30;94711.00;;;;8288624;28;20256;-84
2022/11/18 09:00:31;;;;;;;5.60;2.88;;;;;9.20;94723.00;;;;8296709;28;20225;-80
2022/11/18 09:04:34;;;;;;;6.97;2.97;;;;;9.20;94720.00;;;;8295196;28;20603;-83
2022/11/18 09:09:12;;;;;;;9.10;2.90;;;;;9.30;94724.00;;;;8296442;28;20619;-81
2022/11/18 09:13:15;;;;;;;3.75;2.45;;;;;9.30;94724.00;;;;8294494;28;20228;-81
2022/11/18 09:17:39;;;;;;;3.83;2.42;;;;;9.30;94731.00;;;;8295388;28;20221;-77
2022/11/18 09:21:42;;;;;;;5.00;2.00;;;;;9.40;94734.00;;;;8295793;28;20247;-76
2022/11/18 09:26:22;;;;;;;5.03;2.10;;;;;9.30;94731.00;;;;8295630;28;20289;-76
2022/11/18 09:30:25;;;;;;;3.30;1.93;;;;;9.30;94743.00;;;;8295212;28;20226;-77
2022/11/18 09:34:29;;;;;;;1.80;1.70;;;;;9.30;94729.00;;;;8296581;28;20218;-76
2022/11/18 09:39:03;;;;;;;4.32;1.90;;;;;9.20;94738.00;;;;8295221;28;20225;-76
2022/11/18 09:43:45;;;;;;;2.50;1.30;;;;;9.10;94743.00;;;;8295191;28;20221;-76
2022/11/18 09:48:17;;;;;;;3.05;2.10;;;;;9.10;94752.00;;;;8294572;28;20253;-80
2022/11/18 09:52:58;;;;;;;2.22;1.70;;;;;9.10;94748.00;;;;8295103;28;20233;-79
2022/11/18 09:57:02;;;;;;;2.65;1.83;;;;;9.00;94757.00;;;;8293948;28;20264;-78
2022/11/18 10:01:13;;;;;;;2.70;1.70;;;;;9.00;94753.00;;;;8294873;28;20313;-81
2022/11/18 10:05:45;;;;;;;2.53;1.83;;;;;9.10;94763.00;;;;8293718;28;20228;-80
2022/11/18 10:10:19;;;;;;;1.50;1.40;;;;;9.10;94763.00;;;;8293591;28;20300;-79
2022/11/18 10:20:03;;;;;;;1.40;1.30;;;;;9.10;94767.00;;;;8294024;28;20551;-80
2022/11/18 10:24:30;;;;;;;2.58;1.40;;;;;9.10;94775.00;;;;8294316;28;20309;-79
2022/11/18 10:29:06;;;;;;;1.60;1.48;;;;;9.10;94774.00;;;;8294864;28;20245;-78
2022/11/18 10:33:40;;;;;;;1.40;1.30;;;;;9.00;94783.00;;;;8293797;28;20209;-78
2022/11/18 10:38:19;;;;;;;1.10;1.10;;;;;8.90;94781.00;;;;8298984;28;20297;-79
2022/11/18 10:42:56;;;;;;;1.25;1.10;;;;;8.80;94788.00;;;;8300567;28;20734;-79
2022/11/18 10:47:31;;;;;;;1.40;1.30;;;;;8.80;94788.00;;;;8300508;28;20222;-80
2022/11/18 10:52:06;;;;;;;1.45;1.33;;;;;8.70;94787.00;;;;8300573;28;20309;-79
2022/11/18 10:56:50;;;;;;;1.48;1.45;;;;;8.60;94785.00;;;;8299767;28;20233;-80
2022/11/18 11:01:22;;;;;;;1.15;1.05;;;;;8.60;94787.00;;;;8300017;28;20609;-79
2022/11/18 11:06:12;;;;;;;1.20;1.10;;;;;8.60;94788.00;;;;8298995;28;20304;-79
2022/11/18 11:21:04;;;;;;;14.82;5.20;;;;;8.50;94792.00;;;;8299219;28;20667;-77
2022/11/18 11:25:41;;;;;;;7.03;3.20;;;;;8.50;94788.00;;;;8297858;28;20299;-78
2022/11/18 11:30:18;;;;;;;3.60;2.03;;;;;8.50;94796.00;;;;8292574;28;20221;-77
2022/11/18 11:34:56;;;;;;;5.77;2.53;;;;;8.50;94796.00;;;;8299399;28;20221;-77
2022/11/18 11:39:39;;;;;;;2.30;1.70;;;;;8.50;94794.00;;;;8297436;28;20218;-77
2022/11/18 11:44:30;;;;;;;1.93;1.67;;;;;8.50;94794.00;;;;8290065;28;20244;-78
2022/11/18 11:49:16;;;;;;;3.77;1.90;;;;;8.50;94796.00;;;;8297604;28;20233;-78
2022/11/18 11:53:54;;;;;;;2.40;1.90;;;;;8.50;94800.00;;;;8298447;28;20379;-78
2022/11/18 11:58:26;;;;;;;3.50;1.70;;;;;8.50;94802.00;;;;8297267;28;20218;-77
2022/11/18 12:03:04;;;;;;;1.73;1.63;;;;;8.50;94802.00;;;;8296158;28;20656;-77
2022/11/18 12:07:39;;;;;;;1.75;1.63;;;;;8.50;94810.00;;;;8297626;28;20232;-80
2022/11/18 12:12:37;;;;;;;1.70;1.60;;;;;8.50;94821.00;;;;8289311;28;20226;-81
2022/11/18 12:16:55;;;;;;;2.03;1.50;;;;;8.50;94818.00;;;;8296364;28;20529;-83
2022/11/18 12:21:35;;;;;;;2.27;1.60;;;;;8.50;94822.00;;;;8296676;28;20234;-83
2022/11/18 12:26:32;;;;;;;2.43;1.73;;;;;8.40;94818.00;;;;8297345;28;20605;-83
2022/11/18 12:30:48;;;;;;;2.37;1.70;;;;;8.40;94824.00;;;;8296089;28;20599;-82
2022/11/18 12:35:24;;;;;;;2.13;1.90;;;;;8.40;94823.00;;;;8296420;28;20567;-81
2022/11/18 12:39:58;;;;;;;3.53;1.77;;;;;8.40;94823.00;;;;8296358;28;20279;-81
2022/11/18 12:44:06;;;;;;;1.73;1.63;;;;;8.40;94826.00;;;;8296682;28;20632;-83
2022/11/18 12:48:37;;;;;;;2.40;1.90;;;;;8.50;94823.00;;;;8294761;28;20226;-83
2022/11/18 12:53:27;;;;;;;2.87;1.90;;;;;8.50;94829.00;;;;8296639;28;20269;-79
2022/11/18 12:57:49;;;;;;;2.57;1.70;;;;;8.50;94826.00;;;;8295024;28;20317;-79
2022/11/18 13:02:27;;;;;;;2.57;1.63;;;;;8.50;94827.00;;;;8294904;28;20217;-79
2022/11/18 13:07:03;;;;;;;4.07;1.90;;;;;8.60;94825.00;;;;8296311;28;20288;-77
2022/11/18 13:11:44;;;;;;;1.97;1.77;;;;;8.60;94829.00;;;;8295442;28;20719;-77
2022/11/18 13:20:57;;;;;;;2.07;1.67;;;;;8.60;94827.00;;;;8294232;28;20371;-77
2022/11/18 13:25:33;;;;;;;2.37;1.60;;;;;8.60;94826.00;;;;8295912;28;20218;-78
2022/11/18 13:29:44;;;;;;;1.47;1.40;;;;;8.60;94828.00;;;;8294501;28;20218;-76
2022/11/18 13:34:17;;;;;;;1.60;1.50;;;;;8.70;94831.00;;;;8293305;28;20268;-78
2022/11/18 13:38:55;;;;;;;1.60;1.50;;;;;8.70;94824.00;;;;8294480;28;20272;-77
2022/11/18 13:43:27;;;;;;;1.85;1.40;;;;;8.70;94821.00;;;;8295140;28;20230;-77
2022/11/18 13:48:00;;;;;;;1.90;1.47;;;;;8.70;94836.00;;;;8293639;28;20644;-78
2022/11/18 13:52:38;;;;;;;1.70;1.60;;;;;8.70;94833.00;;;;8294791;28;20260;-78
2022/11/18 13:57:18;;;;;;;2.07;1.67;;;;;8.70;94826.00;;;;8294631;28;20218;-77
2022/11/18 14:01:55;;;;;;;2.40;1.60;;;;;8.70;94827.00;;;;8294669;28;20217;-77
2022/11/18 14:06:30;;;;;;;1.63;1.53;;;;;8.70;94834.00;;;;8294413;28;20221;-77
2022/11/18 14:10:44;;;;;;;2.03;1.70;;;;;8.70;94834.00;;;;8298812;28;20229;-76
2022/11/18 14:14:47;;;;;;;2.20;1.57;;;;;8.70;94837.00;;;;8300679;28;20230;-76
2022/11/18 14:18:52;;;;;;;3.73;2.53;;;;;8.70;94830.00;;;;8300065;28;20218;-74
2022/11/18 14:23:26;;;;;;;2.75;1.90;;;;;8.70;94842.00;;;;8301242;28;20348;-72
2022/11/18 14:28:11;;;;;;;2.50;2.30;;;;;8.70;94850.00;;;;8287908;28;20230;-72
2022/11/18 14:32:39;;;;;;;29.23;18.53;;;;;8.70;94851.00;;;;8298586;28;20226;-73
2022/11/18 14:36:44;;;;;;;3.50;3.20;;;;;8.80;94858.00;;;;8299879;28;20245;-72
2022/11/18 14:40:47;;;;;;;4.43;3.27;;;;;8.80;94862.00;;;;8300579;28;20607;-71
2022/11/18 14:45:26;;;;;;;4.43;2.90;;;;;8.80;94865.00;;;;8299281;28;20221;-75
2022/11/18 14:49:59;;;;;;;4.72;3.40;;;;;8.80;94872.00;;;;8299871;28;20229;-75
2022/11/18 14:54:37;;;;;;;14.02;12.63;;;;;8.80;94871.00;;;;8299734;28;20232;-74
2022/11/18 14:59:14;;;;;;;2.50;2.30;;;;;8.70;94870.00;;;;8299868;28;20225;-77
2022/11/18 15:03:48;;;;;;;3.27;2.33;;;;;8.70;94875.00;;;;8299469;28;20338;-77
2022/11/18 15:08:25;;;;;;;4.67;1.93;;;;;8.70;94887.00;;;;8300410;28;20225;-76
2022/11/18 15:13:03;;;;;;;5.13;2.60;;;;;8.70;94885.00;;;;8298237;28;20603;-76
2022/11/18 15:17:18;;;;;;;4.05;3.65;;;;;8.60;94885.00;;;;8299205;28;20265;-76
2022/11/18 15:21:53;;;;;;;5.17;2.60;;;;;8.60;94891.00;;;;8298472;28;20622;-76
2022/11/18 15:26:34;;;;;;;6.57;5.28;;;;;8.60;94892.00;;;;8299166;28;20616;-77
2022/11/18 15:31:08;;;;;;;5.53;5.07;;;;;8.60;94901.00;;;;8298336;28;20641;-78
2022/11/18 15:35:46;;;;;;;5.00;2.83;;;;;8.60;94897.00;;;;8298117;28;20217;-78
2022/11/18 15:40:20;;;;;;;3.97;2.13;;;;;8.60;94912.00;;;;8293199;28;20666;-76
2022/11/18 15:44:57;;;;;;;4.90;2.60;;;;;8.60;94918.00;;;;8298491;28;20229;-77
2022/11/18 15:49:34;;;;;;;6.40;2.67;;;;;8.60;94916.00;;;;8297581;28;20644;-78
2022/11/18 15:54:09;;;;;;;4.23;2.80;;;;;8.60;94921.00;;;;8297947;28;20314;-76
2022/11/18 15:58:43;;;;;;;12.10;3.20;;;;;8.60;94926.00;;;;8298505;28;20226;-75
2022/11/18 16:03:20;;;;;;;5.38;2.95;;;;;8.60;94929.00;;;;8294087;28;20233;-77
2022/11/18 16:07:57;;;;;;;7.00;3.13;;;;;8.60;94932.00;;;;8297501;28;20520;-78
2022/11/18 16:12:47;;;;;;;5.07;3.40;;;;;8.60;94933.00;;;;8296807;28;20222;-80
2022/11/18 16:22:22;;;;;;;81.27;28.27;;;;;8.50;94935.00;;;;8296831;28;20218;-80
2022/11/18 16:26:59;;;;;;;244.13;61.00;;;;;8.50;94950.00;;;;8297019;28;20655;-80
2022/11/18 16:35:36;;;;;;;27.70;12.70;;;;;8.60;94961.00;;;;8297238;28;20256;-79
2022/11/18 16:40:15;;;;;;;13.80;5.03;;;;;8.60;94963.00;;;;8296465;28;20545;-78
2022/11/18 16:44:52;;;;;;;14.37;7.30;;;;;8.60;94965.00;;;;8278748;28;20720;-77
2022/11/18 16:49:30;;;;;;;19.40;9.37;;;;;8.60;94964.00;;;;8296170;28;20213;-78
2022/11/18 16:54:04;;;;;;;18.77;10.07;;;;;8.60;94964.00;;;;8295917;28;20744;-77
2022/11/18 16:58:38;;;;;;;12.03;5.90;;;;;8.50;94970.00;;;;8295653;28;20229;-79
2022/11/18 17:03:15;;;;;;;14.87;5.30;;;;;8.60;94983.00;;;;8295712;28;20233;-78
2022/11/18 17:07:53;;;;;;;12.35;4.82;;;;;8.60;94980.00;;;;8296988;28;20218;-77
2022/11/18 17:12:27;;;;;;;9.07;4.80;;;;;8.60;94990.00;;;;8294576;28;20559;-80
2022/11/18 17:16:30;;;;;;;14.13;5.10;;;;;8.60;94990.00;;;;8295203;28;20229;-80
2022/11/18 17:21:08;;;;;;;13.60;5.10;;;;;8.60;94999.00;;;;8295774;28;20234;-80
2022/11/18 17:25:46;;;;;;;12.77;4.90;;;;;8.50;94992.00;;;;8295974;28;20226;-81
2022/11/18 17:30:23;;;;;;;11.70;5.20;;;;;8.50;95014.00;;;;8294935;28;20276;-80
2022/11/18 17:35:00;;;;;;;15.93;6.53;;;;;8.50;95005.00;;;;8295104;28;20214;-81
2022/11/18 17:39:37;;;;;;;12.73;5.60;;;;;8.60;95001.00;;;;8295391;28;20264;-80
2022/11/18 17:44:16;;;;;;;19.13;5.95;;;;;8.60;95001.00;;;;8294618;28;20265;-81
2022/11/18 17:48:53;;;;;;;18.53;5.73;;;;;8.60;95007.00;;;;8294046;28;20217;-78
2022/11/18 17:53:32;;;;;;;22.27;6.55;;;;;8.60;95016.00;;;;8284040;28;20276;-78
2022/11/18 17:58:10;;;;;;;18.77;6.63;;;;;8.60;95020.00;;;;8294009;28;20595;-78
2022/11/18 18:02:45;;;;;;;4.00;2.53;;;;;8.50;95031.00;;;;8294223;28;20280;-79
2022/11/18 18:07:19;;;;;;;4.40;2.50;;;;;8.40;95031.00;;;;8294475;28;20255;-80
2022/11/18 18:11:56;;;;;;;1.80;1.70;;;;;8.10;95025.00;;;;8293861;28;20284;-79
2022/11/18 18:21:17;;;;;;;1.83;1.30;;;;;7.90;95035.00;;;;8293128;28;20300;-78
2022/11/18 18:25:51;;;;;;;1.80;1.70;;;;;7.90;95042.00;;;;8293680;28;20334;-83
2022/11/18 18:30:28;;;;;;;0.93;0.93;;;;;7.90;95055.00;;;;8293939;28;20718;-85
2022/11/18 18:35:05;;;;;;;1.30;1.20;;;;;7.80;95047.00;;;;8294468;28;20237;-83
2022/11/18 18:39:39;;;;;;;0.98;0.98;;;;;7.70;95062.00;;;;8293486;28;20318;-86
2022/11/18 18:43:44;;;;;;;1.73;1.47;;;;;7.80;95066.00;;;;8294279;28;20264;-85
2022/11/18 18:48:18;;;;;;;1.57;1.47;;;;;7.80;95066.00;;;;8294763;28;20222;-83
2022/11/18 18:52:54;;;;;;;1.93;1.27;;;;;7.80;95084.00;;;;8293758;28;20230;-82
2022/11/18 18:57:31;;;;;;;1.10;1.10;;;;;7.70;95079.00;;;;8295888;28;20713;-83
2022/11/18 19:01:57;;;;;;;0.97;0.90;;;;;7.70;95085.00;;;;8300309;28;20561;-81
2022/11/18 19:06:00;;;;;;;2.00;1.00;;;;;7.80;95084.00;;;;8299661;28;20559;-82
2022/11/18 19:10:23;;;;;;;1.10;1.10;;;;;7.80;95091.00;;;;8287549;28;20663;-82
2022/11/18 19:14:26;;;;;;;1.00;1.00;;;;;7.80;95091.00;;;;8299461;28;20222;-79
2022/11/18 19:19:02;;;;;;;1.00;1.00;;;;;7.80;95100.00;;;;8299223;28;20291;-79
2022/11/18 19:23:26;;;;;;;1.03;1.03;;;;;7.80;95106.00;;;;8298717;28;20221;-78
2022/11/18 19:28:02;;;;;;;0.83;0.83;;;;;7.80;95110.00;;;;8299413;28;20225;-79
2022/11/18 19:32:41;;;;;;;1.10;1.10;;;;;7.90;95110.00;;;;8297672;28;20218;-81
2022/11/18 19:36:45;;;;;;;1.27;1.27;;;;;7.90;95119.00;;;;8298744;28;20218;-80
2022/11/18 19:41:19;;;;;;;1.50;1.20;;;;;7.90;95122.00;;;;8298838;28;20225;-83
2022/11/18 19:45:58;;;;;;;2.00;1.70;;;;;7.90;95119.00;;;;8299055;28;20279;-85
2022/11/18 19:50:34;;;;;;;1.97;1.67;;;;;7.90;95129.00;;;;8296630;28;20322;-85
2022/11/18 19:55:11;;;;;;;1.60;1.50;;;;;8.00;95126.00;;;;8297959;28;20226;-83
2022/11/18 19:59:49;;;;;;;1.90;1.63;;;;;8.00;95122.00;;;;8297932;28;20226;-83
2022/11/18 20:04:23;;;;;;;1.70;1.60;;;;;8.00;95124.00;;;;8298150;28;20229;-84
2022/11/18 20:09:00;;;;;;;5.43;2.70;;;;;8.00;95128.00;;;;8296039;28;20222;-86
2022/11/18 20:13:38;;;;;;;2.97;2.20;;;;;8.00;95127.00;;;;8296179;28;20248;-86
2022/11/18 20:18:19;;;;;;;5.50;2.43;;;;;8.00;95126.00;;;;8298163;28;20230;-80
2022/11/18 20:22:53;;;;;;;5.90;2.80;;;;;8.00;95146.00;;;;8290566;28;20217;-79
2022/11/18 20:27:30;;;;;;;3.45;2.67;;;;;7.80;95147.00;;;;8296703;28;20241;-81
2022/11/18 20:32:06;;;;;;;5.73;1.77;;;;;7.70;95144.00;;;;8295535;28;20641;-81
2022/11/18 20:36:45;;;;;;;2.00;1.80;;;;;7.60;95142.00;;;;8297687;28;20245;-79
2022/11/18 20:41:22;;;;;;;2.80;1.47;;;;;7.50;95145.00;;;;8296270;28;20249;-79
2022/11/18 20:46:00;;;;;;;3.40;1.77;;;;;7.50;95143.00;;;;8296834;28;20221;-78
2022/11/18 20:50:37;;;;;;;2.97;1.90;;;;;7.50;95142.00;;;;8293293;28;20655;-81
2022/11/18 20:55:15;;;;;;;3.10;2.30;;;;;7.50;95142.00;;;;8296190;28;20276;-84
2022/11/18 20:59:30;;;;;;;4.70;2.40;;;;;7.60;95150.00;;;;8296366;28;20228;-85
2022/11/18 21:04:07;;;;;;;13.30;4.37;;;;;7.60;95151.00;;;;8295129;28;20234;-84
2022/11/18 21:08:41;;;;;;;8.73;4.57;;;;;7.70;95156.00;;;;8295731;28;20214;-84
2022/11/18 21:17:56;;;;;;;11.45;5.85;;;;;7.70;95166.00;;;;8296353;28;20245;-81
2022/11/18 21:22:33;;;;;;;6.07;2.47;;;;;7.60;95169.00;;;;8295043;28;20269;-79
2022/11/18 21:27:09;;;;;;;3.80;2.70;;;;;7.60;95168.00;;;;8294034;28;20237;-81
2022/11/18 21:31:14;;;;;;;4.83;3.10;;;;;7.60;95165.00;;;;8295490;28;20214;-81
2022/11/18 21:35:48;;;;;;;7.20;3.30;;;;;7.60;95175.00;;;;8295097;28;20587;-81
2022/11/18 21:40:29;;;;;;;7.20;3.60;;;;;7.60;95179.00;;;;8294784;28;20237;-82
2022/11/18 21:45:06;;;;;;;8.87;2.80;;;;;7.70;95184.00;;;;8295478;28;20556;-83
2022/11/18 21:49:45;;;;;;;8.57;3.77;;;;;7.70;95185.00;;;;8295649;28;20221;-82
2022/11/18 21:54:18;;;;;;;5.20;3.20;;;;;7.70;95186.00;;;;8283373;28;20218;-82
2022/11/18 21:58:55;;;;;;;8.50;3.80;;;;;7.70;95187.00;;;;8295000;28;20214;-80
2022/11/18 22:03:32;;;;;;;7.57;3.93;;;;;7.70;95198.00;;;;8292722;28;20218;-80
2022/11/18 22:08:11;;;;;;;6.03;3.20;;;;;7.70;95198.00;;;;8293834;28;20222;-81
2022/11/18 22:12:14;;;;;;;6.47;3.90;;;;;7.70;95197.00;;;;8293303;28;20238;-80
2022/11/18 22:16:19;;;;;;;9.07;4.27;;;;;7.70;95204.00;;;;8295037;28;20536;-82
2022/11/18 22:20:22;;;;;;;6.30;3.50;;;;;7.70;95210.00;;;;8294940;28;20249;-82
2022/11/18 22:24:26;;;;;;;3.23;2.30;;;;;7.60;95215.00;;;;8294773;28;20675;-81
2022/11/18 22:29:03;;;;;;;1.83;1.73;;;;;6.90;95221.00;;;;8294804;28;20606;-83
2022/11/18 22:33:06;;;;;;;1.73;1.67;;;;;6.40;95227.00;;;;8301120;28;20214;-84
2022/11/18 22:37:09;;;;;;;4.67;3.00;;;;;6.10;95229.00;;;;8301035;28;20654;-81
2022/11/18 22:46:08;;;;;;;4.50;2.27;;;;;5.70;95231.00;;;;8300343;28;20229;-81
2022/11/18 22:50:11;;;;;;;2.23;2.03;;;;;5.50;95242.00;;;;8291032;28;20663;-82
2022/11/18 22:54:15;;;;;;;4.90;2.67;;;;;5.30;95253.00;;;;8300236;28;20237;-85
2022/11/18 22:58:39;;;;;;;2.00;1.83;;;;;5.10;95264.00;;;;8300197;28;20535;-85
2022/11/18 23:02:42;;;;;;;1.73;1.63;;;;;4.90;95273.00;;;;8298410;28;20221;-83
2022/11/18 23:07:19;;;;;;;2.07;1.83;;;;;4.80;95265.00;;;;8300197;28;20567;-82
2022/11/18 23:15:40;;;;;;;0.50;0.50;;;;;4.70;95272.00;;;;8298615;28;20218;-82
2022/11/18 23:19:45;;;;;;;0.50;0.50;;;;;4.60;95268.00;;;;8299459;28;20271;-81
2022/11/18 23:23:48;;;;;;;0.50;0.50;;;;;4.60;95256.00;;;;8298553;28;20571;-83
2022/11/18 23:27:51;;;;;;;0.50;0.50;;;;;4.60;95259.00;;;;8298976;28;20600;-82